createdAt,value
2022-10-13T00:00:51.107Z,11.86
2022-10-13T00:02:22.913Z,11.89
2022-10-13T00:03:54.473Z,11.92
2022-10-13T00:05:26.138Z,11.98
2022-10-13T00:06:57.727Z,11.96
2022-10-13T00:08:30.337Z,11.97
2022-10-13T00:10:01.896Z,11.99
2022-10-13T00:11:33.525Z,11.98
2022-10-13T00:13:05.217Z,12.00
2022-10-13T00:14:36.839Z,12.03
2022-10-13T00:16:08.936Z,12.06
2022-10-13T00:17:41.982Z,12.09
2022-10-13T00:19:15.172Z,12.03
2022-10-13T00:20:50.006Z,11.98
2022-10-13T00:22:22.102Z,11.94
2022-10-13T00:23:53.781Z,11.91
2022-10-13T00:25:25.698Z,11.87
2022-10-13T00:26:57.275Z,11.85
2022-10-13T00:28:28.867Z,11.84
2022-10-13T00:30:00.563Z,11.80
2022-10-13T00:31:32.231Z,11.79
2022-10-13T00:33:04.010Z,11.83
2022-10-13T00:34:37.086Z,11.84
2022-10-13T00:36:08.797Z,11.84
2022-10-13T00:37:40.395Z,11.83
2022-10-13T00:39:11.887Z,11.79
2022-10-13T00:40:44.482Z,11.78
2022-10-13T00:42:16.505Z,11.73
2022-10-13T00:43:51.542Z,11.71
2022-10-13T00:45:24.333Z,11.65
2022-10-13T00:46:55.887Z,11.61
2022-10-13T00:48:27.866Z,11.56
2022-10-13T00:49:59.661Z,11.53
2022-10-13T00:51:32.381Z,11.52
2022-10-13T00:53:03.972Z,11.46
2022-10-13T00:54:35.622Z,11.43
2022-10-13T00:56:08.090Z,11.40
2022-10-13T00:57:40.707Z,11.39
2022-10-13T00:59:14.267Z,11.38
2022-10-13T01:00:46.770Z,11.35
2022-10-13T01:02:18.527Z,11.34
2022-10-13T01:03:50.664Z,11.33
2022-10-13T01:05:22.970Z,11.36
2022-10-13T01:06:55.300Z,11.37
2022-10-13T01:08:27.457Z,11.37
2022-10-13T01:10:01.009Z,11.40
2022-10-13T01:11:51.263Z,11.46
2022-10-13T01:13:43.151Z,11.46
2022-10-13T01:15:19.416Z,11.43
2022-10-13T01:16:56.799Z,11.39
2022-10-13T01:18:28.609Z,11.34
2022-10-13T01:20:05.869Z,11.29
2022-10-13T01:21:45.224Z,11.25
2022-10-13T01:23:16.765Z,11.21
2022-10-13T01:25:08.563Z,11.21
2022-10-13T01:26:49.463Z,11.22
2022-10-13T01:28:39.302Z,11.23
2022-10-13T01:30:14.887Z,11.23
2022-10-13T01:31:46.456Z,11.23
2022-10-13T01:33:20.134Z,11.26
2022-10-13T01:34:53.131Z,11.31
2022-10-13T01:36:36.760Z,11.33
2022-10-13T01:38:20.712Z,11.34
2022-10-13T01:39:57.311Z,11.39
2022-10-13T01:41:29.710Z,11.42
2022-10-13T01:43:13.709Z,11.41
2022-10-13T01:44:55.206Z,11.42
2022-10-13T01:46:27.315Z,11.46
2022-10-13T01:47:59.504Z,11.46
2022-10-13T01:49:32.127Z,11.50
2022-10-13T01:51:03.760Z,11.49
2022-10-13T01:52:35.957Z,11.47
2022-10-13T01:54:08.050Z,11.43
2022-10-13T01:55:52.195Z,11.39
2022-10-13T01:57:32.460Z,11.34
2022-10-13T01:59:08.444Z,11.30
2022-10-13T02:00:40.993Z,11.25
2022-10-13T02:02:19.625Z,11.22
2022-10-13T02:04:09.684Z,11.17
2022-10-13T02:05:51.955Z,11.07
2022-10-13T02:07:23.759Z,11.03
2022-10-13T02:09:18.740Z,11.02
2022-10-13T02:10:50.318Z,11.03
2022-10-13T02:12:25.215Z,11.00
2022-10-13T02:14:02.170Z,10.99
2022-10-13T02:15:59.770Z,10.97
2022-10-13T02:17:31.347Z,10.94
2022-10-13T02:19:03.597Z,10.86
2022-10-13T02:20:35.528Z,10.82
2022-10-13T02:22:07.297Z,10.82
2022-10-13T02:23:38.825Z,10.80
2022-10-13T02:25:10.475Z,10.80
2022-10-13T02:26:42.151Z,10.80
2022-10-13T02:28:13.855Z,10.80
2022-10-13T02:29:49.333Z,10.80
2022-10-13T02:31:21.097Z,10.80
2022-10-13T02:32:52.762Z,10.78
2022-10-13T02:34:24.515Z,10.79
2022-10-13T02:35:56.303Z,10.79
2022-10-13T02:37:28.088Z,10.80
2022-10-13T02:38:59.683Z,10.84
2022-10-13T02:40:31.260Z,10.89
2022-10-13T02:42:02.928Z,10.91
2022-10-13T02:43:37.365Z,10.92
2022-10-13T02:45:09.284Z,10.87
2022-10-13T02:46:41.346Z,10.86
2022-10-13T02:48:12.926Z,10.85
2022-10-13T02:49:44.585Z,10.86
2022-10-13T02:51:16.141Z,10.84
2022-10-13T02:52:47.664Z,10.81
2022-10-13T02:54:19.598Z,10.79
2022-10-13T02:55:51.110Z,10.78
2022-10-13T02:57:22.845Z,10.78
2022-10-13T02:58:54.410Z,10.79
2022-10-13T03:00:26.240Z,10.82
2022-10-13T03:01:57.802Z,10.87
2022-10-13T03:03:29.375Z,10.91
2022-10-13T03:05:01.008Z,10.96
2022-10-13T03:06:32.599Z,10.96
2022-10-13T03:08:04.276Z,10.96
2022-10-13T03:09:36.239Z,10.96
2022-10-13T03:11:07.912Z,10.93
2022-10-13T03:12:39.538Z,10.94
2022-10-13T03:14:11.103Z,10.93
2022-10-13T03:15:42.653Z,10.95
2022-10-13T03:17:14.207Z,10.98
2022-10-13T03:18:45.736Z,10.99
2022-10-13T03:20:17.439Z,11.00
2022-10-13T03:21:49.088Z,11.00
2022-10-13T03:23:20.714Z,10.96
2022-10-13T03:24:52.330Z,10.94
2022-10-13T03:26:23.853Z,10.91
2022-10-13T03:27:55.740Z,10.89
2022-10-13T03:29:27.265Z,10.89
2022-10-13T03:31:05.691Z,10.87
2022-10-13T03:32:37.261Z,10.85
2022-10-13T03:34:10.020Z,10.84
2022-10-13T03:35:42.163Z,10.82
2022-10-13T03:37:13.666Z,10.81
2022-10-13T03:38:45.170Z,10.82
2022-10-13T03:40:17.293Z,10.83
2022-10-13T03:41:49.011Z,10.84
2022-10-13T03:43:20.527Z,10.84
2022-10-13T03:44:56.390Z,10.85
2022-10-13T03:46:28.752Z,10.88
2022-10-13T03:48:00.288Z,10.91
2022-10-13T03:49:31.845Z,10.90
2022-10-13T03:51:07.179Z,10.88
2022-10-13T03:52:38.781Z,10.88
2022-10-13T03:54:13.579Z,10.87
2022-10-13T03:55:54.517Z,10.77
2022-10-13T03:57:26.031Z,10.68
2022-10-13T03:58:58.421Z,10.61
2022-10-13T04:00:30.073Z,10.54
2022-10-13T04:02:01.752Z,10.49
2022-10-13T04:03:33.547Z,10.42
2022-10-13T04:05:05.262Z,10.38
2022-10-13T04:06:36.965Z,10.43
2022-10-13T04:08:08.564Z,10.42
2022-10-13T04:09:40.424Z,10.44
2022-10-13T04:11:12.839Z,10.44
2022-10-13T04:12:44.446Z,10.46
2022-10-13T04:14:16.006Z,10.48
2022-10-13T04:15:47.486Z,10.50
2022-10-13T04:17:19.120Z,10.49
2022-10-13T04:19:00.714Z,10.50
2022-10-13T04:20:32.289Z,10.51
2022-10-13T04:22:03.930Z,10.53
2022-10-13T04:23:35.659Z,10.56
2022-10-13T04:25:07.581Z,10.59
2022-10-13T04:26:39.265Z,10.59
2022-10-13T04:28:10.946Z,10.61
2022-10-13T04:29:42.559Z,10.59
2022-10-13T04:31:14.245Z,10.59
2022-10-13T04:32:45.884Z,10.60
2022-10-13T04:34:17.437Z,10.64
2022-10-13T04:35:49.031Z,10.63
2022-10-13T04:37:20.647Z,10.63
2022-10-13T04:38:52.479Z,10.59
2022-10-13T04:40:25.290Z,10.54
2022-10-13T04:41:56.960Z,10.53
2022-10-13T04:43:29.033Z,10.55
2022-10-13T04:45:00.703Z,10.57
2022-10-13T04:46:32.359Z,10.56
2022-10-13T04:48:03.852Z,10.57
2022-10-13T04:49:35.637Z,10.57
2022-10-13T04:51:11.280Z,10.59
2022-10-13T04:52:43.044Z,10.61
2022-10-13T04:54:14.654Z,10.64
2022-10-13T04:55:46.270Z,10.69
2022-10-13T04:57:17.953Z,10.73
2022-10-13T04:58:49.521Z,10.76
2022-10-13T05:00:21.504Z,10.78
2022-10-13T05:01:53.184Z,10.80
2022-10-13T05:03:24.979Z,10.80
2022-10-13T05:04:56.624Z,10.85
2022-10-13T05:06:29.985Z,10.88
2022-10-13T05:08:01.723Z,10.93
2022-10-13T05:09:33.488Z,10.93
2022-10-13T05:11:05.195Z,10.95
2022-10-13T05:12:37.391Z,10.96
2022-10-13T05:14:09.629Z,11.00
2022-10-13T05:15:41.693Z,11.03
2022-10-13T05:17:13.263Z,11.06
2022-10-13T05:18:45.138Z,11.08
2022-10-13T05:20:17.855Z,11.07
2022-10-13T05:21:49.624Z,11.06
2022-10-13T05:23:21.284Z,11.08
2022-10-13T05:24:52.890Z,11.10
2022-10-13T05:26:28.722Z,11.10
2022-10-13T05:28:00.410Z,11.12
2022-10-13T05:29:32.157Z,11.12
2022-10-13T05:31:09.475Z,11.16
2022-10-13T05:32:41.024Z,11.22
2022-10-13T05:34:13.479Z,11.22
2022-10-13T05:35:45.253Z,11.25
2022-10-13T05:37:21.991Z,11.26
2022-10-13T05:38:57.330Z,11.27
2022-10-13T05:40:29.642Z,11.29
2022-10-13T05:42:01.297Z,11.32
2022-10-13T05:43:32.943Z,11.31
2022-10-13T05:45:04.710Z,11.30
2022-10-13T05:46:36.476Z,11.31
2022-10-13T05:48:08.170Z,11.29
2022-10-13T05:49:40.114Z,11.28
2022-10-13T05:51:12.782Z,11.33
2022-10-13T05:52:44.583Z,11.36
2022-10-13T05:54:17.562Z,11.35
2022-10-13T05:55:50.777Z,11.41
2022-10-13T05:57:33.435Z,11.45
2022-10-13T05:59:05.701Z,11.47
2022-10-13T06:00:37.306Z,11.45
2022-10-13T06:02:09.549Z,11.43
2022-10-13T06:03:42.180Z,11.44
2022-10-13T06:05:15.277Z,11.52
2022-10-13T06:06:47.536Z,11.57
2022-10-13T06:08:19.224Z,11.62
2022-10-13T06:09:51.284Z,11.70
2022-10-13T06:11:23.422Z,11.73
2022-10-13T06:12:55.155Z,11.76
2022-10-13T06:14:26.743Z,11.77
2022-10-13T06:15:58.300Z,11.80
2022-10-13T06:17:29.923Z,11.78
2022-10-13T06:19:01.631Z,11.76
2022-10-13T06:20:33.432Z,11.70
2022-10-13T06:22:05.177Z,11.72
2022-10-13T06:23:36.735Z,11.76
2022-10-13T06:25:08.916Z,11.74
2022-10-13T06:26:41.006Z,11.78
2022-10-13T06:28:13.448Z,11.80
2022-10-13T06:29:45.046Z,11.83
2022-10-13T06:31:16.552Z,11.86
2022-10-13T06:32:48.264Z,11.93
2022-10-13T06:34:19.829Z,11.99
2022-10-13T06:35:52.438Z,12.07
2022-10-13T06:37:27.324Z,12.11
2022-10-13T06:38:59.242Z,12.19
2022-10-13T06:40:30.822Z,12.21
2022-10-13T06:42:02.387Z,12.23
2022-10-13T06:43:39.861Z,12.26
2022-10-13T06:45:12.066Z,12.22
2022-10-13T06:46:43.663Z,12.23
2022-10-13T06:48:15.180Z,12.23
2022-10-13T06:49:46.712Z,12.22
2022-10-13T06:51:18.645Z,12.24
2022-10-13T06:52:50.424Z,12.30
2022-10-13T06:54:22.671Z,12.31
2022-10-13T06:56:00.681Z,12.33
2022-10-13T06:57:32.376Z,12.38
2022-10-13T06:59:03.914Z,12.41
2022-10-13T07:00:35.688Z,12.45
2022-10-13T07:02:07.615Z,12.49
2022-10-13T07:03:39.215Z,12.52
2022-10-13T07:05:10.830Z,12.57
2022-10-13T07:06:42.452Z,12.61
2022-10-13T07:08:14.037Z,12.66
2022-10-13T07:09:45.618Z,12.70
2022-10-13T07:11:18.761Z,12.74
2022-10-13T07:12:50.421Z,12.80
2022-10-13T07:14:22.032Z,12.78
2022-10-13T07:15:53.684Z,12.63
2022-10-13T07:17:25.782Z,12.59
2022-10-13T07:18:57.350Z,12.59
2022-10-13T07:20:28.955Z,12.62
2022-10-13T07:22:00.539Z,12.59
2022-10-13T07:23:32.069Z,12.57
2022-10-13T07:25:03.768Z,12.62
2022-10-13T07:26:36.917Z,12.62
2022-10-13T07:28:08.489Z,12.65
2022-10-13T07:29:40.181Z,12.77
2022-10-13T07:31:13.899Z,12.89
2022-10-13T07:32:45.608Z,12.94
2022-10-13T07:34:17.138Z,13.00
2022-10-13T07:35:48.691Z,13.07
2022-10-13T07:37:20.644Z,13.10
2022-10-13T07:38:52.500Z,13.14
2022-10-13T07:40:24.367Z,13.13
2022-10-13T07:41:56.265Z,13.15
2022-10-13T07:43:28.001Z,13.12
2022-10-13T07:44:59.555Z,13.14
2022-10-13T07:46:31.163Z,13.22
2022-10-13T07:48:02.750Z,13.34
2022-10-13T07:49:34.377Z,13.45
2022-10-13T07:51:06.544Z,13.56
2022-10-13T07:52:38.182Z,13.64
2022-10-13T07:54:09.759Z,13.62
2022-10-13T07:55:41.435Z,13.64
2022-10-13T07:57:13.081Z,13.74
2022-10-13T07:58:45.395Z,13.81
2022-10-13T08:00:17.125Z,13.85
2022-10-13T08:01:48.982Z,13.87
2022-10-13T08:03:20.689Z,13.91
2022-10-13T08:04:52.341Z,13.97
2022-10-13T08:06:24.305Z,14.05
2022-10-13T08:07:58.363Z,14.10
2022-10-13T08:09:30.824Z,14.12
2022-10-13T08:11:03.222Z,14.18
2022-10-13T08:12:38.041Z,14.26
2022-10-13T08:14:10.437Z,14.35
2022-10-13T08:15:42.619Z,14.43
2022-10-13T08:17:14.097Z,14.50
2022-10-13T08:26:26.209Z,14.81
2022-10-13T08:28:00.451Z,14.95
2022-10-13T08:29:32.366Z,15.09
2022-10-13T08:31:04.185Z,15.21
2022-10-13T08:32:35.973Z,15.34
2022-10-13T08:34:07.625Z,15.45
2022-10-13T08:35:39.380Z,15.49
2022-10-13T08:37:14.988Z,15.60
2022-10-13T08:38:46.732Z,15.69
2022-10-13T08:40:19.982Z,15.71
2022-10-13T08:41:51.785Z,15.81
2022-10-13T08:43:23.486Z,15.89
2022-10-13T08:45:36.341Z,16.03
2022-10-13T08:46:53.394Z,16.18
2022-10-13T08:48:26.118Z,16.32
2022-10-13T08:50:00.455Z,16.44
2022-10-13T08:51:32.701Z,16.51
2022-10-13T08:53:15.260Z,16.53
2022-10-13T08:54:47.094Z,16.57
2022-10-13T08:56:29.084Z,16.68
2022-10-13T08:58:00.968Z,16.78
2022-10-13T08:59:32.588Z,16.75
2022-10-13T09:01:07.338Z,16.80
2022-10-13T09:02:39.350Z,17.01
2022-10-13T09:04:11.501Z,17.22
2022-10-13T09:05:44.781Z,17.44
2022-10-13T09:07:18.633Z,17.58
2022-10-13T09:08:52.935Z,17.70
2022-10-13T09:10:24.568Z,17.78
2022-10-13T09:11:56.444Z,17.85
2022-10-13T09:13:28.048Z,17.96
2022-10-13T09:15:05.640Z,18.02
2022-10-13T09:16:38.574Z,18.12
2022-10-13T09:18:10.915Z,18.26
2022-10-13T09:19:42.565Z,18.32
2022-10-13T09:21:21.574Z,18.23
2022-10-13T09:23:03.643Z,18.30
2022-10-13T09:24:35.225Z,18.31
2022-10-13T09:26:07.748Z,18.38
2022-10-13T09:27:55.448Z,18.42
2022-10-13T09:29:27.309Z,18.50
2022-10-13T09:31:09.157Z,18.46
2022-10-13T09:32:45.508Z,18.37
2022-10-13T09:34:20.165Z,18.38
2022-10-13T09:35:57.447Z,18.34
2022-10-13T09:37:29.429Z,18.30
2022-10-13T09:39:14.178Z,18.26
2022-10-13T09:40:57.465Z,18.33
2022-10-13T09:42:29.819Z,18.42
2022-10-13T09:44:03.663Z,18.45
2022-10-13T09:45:36.021Z,18.49
2022-10-13T09:47:14.619Z,18.51
2022-10-13T09:48:48.140Z,18.48
2022-10-13T09:50:20.915Z,18.50
2022-10-13T09:51:52.594Z,18.49
2022-10-13T09:53:38.580Z,18.41
2022-10-13T09:55:32.223Z,18.34
2022-10-13T09:57:30.863Z,18.41
2022-10-13T09:59:06.903Z,18.41
2022-10-13T10:00:39.262Z,18.40
2022-10-13T10:02:29.928Z,18.46
2022-10-13T10:04:03.986Z,18.53
2022-10-13T10:05:41.562Z,18.54
2022-10-13T10:07:14.132Z,18.60
2022-10-13T10:09:03.274Z,18.61
2022-10-13T10:10:37.042Z,18.63
2022-10-13T10:12:09.735Z,18.68
2022-10-13T10:13:41.383Z,18.70
2022-10-13T10:15:36.365Z,18.73
2022-10-13T10:17:17.934Z,18.71
2022-10-13T10:18:57.753Z,18.71
2022-10-13T10:20:36.692Z,18.72
2022-10-13T10:22:11.066Z,18.71
2022-10-13T10:23:48.988Z,18.69
2022-10-13T10:25:35.929Z,18.63
2022-10-13T10:27:10.930Z,18.69
2022-10-13T10:28:44.500Z,18.68
2022-10-13T10:30:16.921Z,18.74
2022-10-13T10:31:57.652Z,18.86
2022-10-13T10:33:41.089Z,19.02
2022-10-13T10:35:21.820Z,19.11
2022-10-13T10:36:59.558Z,19.21
2022-10-13T10:38:34.290Z,19.30
2022-10-13T10:40:25.166Z,19.39
2022-10-13T10:42:19.680Z,19.52
2022-10-13T10:43:52.255Z,19.52
2022-10-13T10:45:27.134Z,19.45
2022-10-13T10:47:03.138Z,19.42
2022-10-13T10:48:41.235Z,19.38
2022-10-13T10:50:16.193Z,19.39
2022-10-13T10:51:47.877Z,19.42
2022-10-13T10:53:19.454Z,19.46
2022-10-13T10:54:55.887Z,19.45
2022-10-13T10:56:27.497Z,19.50
2022-10-13T10:57:59.398Z,19.57
2022-10-13T10:59:40.884Z,19.62
2022-10-13T11:01:12.520Z,19.59
2022-10-13T11:02:46.660Z,19.66
2022-10-13T11:04:33.705Z,19.71
2022-10-13T11:06:06.275Z,19.74
2022-10-13T11:07:43.972Z,19.76
2022-10-13T11:09:15.588Z,19.79
2022-10-13T11:10:47.262Z,19.80
2022-10-13T11:12:22.078Z,19.79
2022-10-13T11:13:54.471Z,19.78
2022-10-13T11:15:31.277Z,19.82
2022-10-13T11:17:06.002Z,19.77
2022-10-13T11:18:59.109Z,19.84
2022-10-13T11:20:36.794Z,19.91
2022-10-13T11:22:08.346Z,19.84
2022-10-13T11:23:43.885Z,19.71
2022-10-13T11:25:33.935Z,19.75
2022-10-13T11:27:09.313Z,19.79
2022-10-13T11:28:41.021Z,19.84
2022-10-13T11:30:31.594Z,19.78
2022-10-13T11:32:04.988Z,19.82
2022-10-13T11:33:37.252Z,19.84
2022-10-13T11:35:08.730Z,19.96
2022-10-13T11:36:46.908Z,20.06
2022-10-13T11:38:24.440Z,20.12
2022-10-13T11:39:59.960Z,20.24
2022-10-13T11:41:32.315Z,20.34
2022-10-13T11:43:18.818Z,20.41
2022-10-13T11:44:57.901Z,20.41
2022-10-13T11:46:35.513Z,20.41
2022-10-13T11:48:25.730Z,20.47
2022-10-13T11:50:00.350Z,20.62
2022-10-13T11:51:32.018Z,20.76
2022-10-13T11:53:03.619Z,20.86
2022-10-13T11:54:54.434Z,20.99
2022-10-13T11:56:48.327Z,21.08
2022-10-13T11:58:20.459Z,21.18
2022-10-13T11:59:55.461Z,21.23
2022-10-13T12:01:27.094Z,21.21
2022-10-13T12:02:58.631Z,21.19
2022-10-13T12:04:30.462Z,21.12
2022-10-13T12:06:05.999Z,21.07
2022-10-13T12:07:39.220Z,21.08
2022-10-13T12:09:20.382Z,21.07
2022-10-13T12:10:52.957Z,21.11
2022-10-13T12:12:24.668Z,21.20
2022-10-13T12:13:56.492Z,21.30
2022-10-13T12:15:30.428Z,21.31
2022-10-13T12:17:02.707Z,21.38
2022-10-13T12:18:35.288Z,21.48
2022-10-13T12:20:25.725Z,21.51
2022-10-13T12:22:00.668Z,21.52
2022-10-13T12:23:32.499Z,21.63
2022-10-13T12:25:04.849Z,21.74
2022-10-13T12:26:36.533Z,21.68
2022-10-13T12:28:15.071Z,21.69
2022-10-13T12:29:46.829Z,21.72
2022-10-13T12:31:22.703Z,21.68
2022-10-13T12:32:55.303Z,21.66
2022-10-13T12:34:27.819Z,21.66
2022-10-13T12:36:12.322Z,21.61
2022-10-13T12:37:46.810Z,21.45
2022-10-13T12:39:18.935Z,21.36
2022-10-13T12:40:51.366Z,21.34
2022-10-13T12:42:25.375Z,21.30
2022-10-13T12:43:59.952Z,21.27
2022-10-13T12:45:34.198Z,21.28
2022-10-13T12:47:06.759Z,21.33
2022-10-13T12:48:43.696Z,21.33
2022-10-13T12:50:21.229Z,21.29
2022-10-13T12:51:54.794Z,21.33
2022-10-13T12:53:26.860Z,21.41
2022-10-13T12:55:00.477Z,21.54
2022-10-13T12:56:32.112Z,21.66
2022-10-13T12:58:03.802Z,21.79
2022-10-13T12:59:35.438Z,21.93
2022-10-13T13:01:27.705Z,22.03
2022-10-13T13:03:00.080Z,22.22
2022-10-13T13:04:37.756Z,22.35
2022-10-13T13:06:15.589Z,22.34
2022-10-13T13:07:52.500Z,22.36
2022-10-13T13:09:24.329Z,22.37
2022-10-13T13:10:56.412Z,22.36
2022-10-13T13:12:28.577Z,22.36
2022-10-13T13:14:19.110Z,22.39
2022-10-13T13:15:50.695Z,22.38
2022-10-13T13:17:45.381Z,22.40
2022-10-13T13:19:22.065Z,22.42
2022-10-13T13:20:54.018Z,22.38
2022-10-13T13:22:25.717Z,22.28
2022-10-13T13:23:57.595Z,22.26
2022-10-13T13:25:29.129Z,22.30
2022-10-13T13:27:02.431Z,22.27
2022-10-13T13:28:34.149Z,22.26
2022-10-13T13:30:15.273Z,22.27
2022-10-13T13:31:46.960Z,22.20
2022-10-13T13:33:18.590Z,22.15
2022-10-13T13:34:50.447Z,22.20
2022-10-13T13:36:23.299Z,22.23
2022-10-13T13:37:55.026Z,22.26
2022-10-13T13:39:26.713Z,22.28
2022-10-13T13:41:02.940Z,22.20
2022-10-13T13:42:35.861Z,22.03
2022-10-13T13:44:07.523Z,21.93
2022-10-13T13:45:39.058Z,21.86
2022-10-13T13:47:20.281Z,21.85
2022-10-13T13:48:52.139Z,21.79
2022-10-13T13:50:25.262Z,21.70
2022-10-13T13:51:56.808Z,21.58
2022-10-13T13:53:28.417Z,21.50
2022-10-13T13:55:01.579Z,21.43
2022-10-13T13:56:33.416Z,21.35
2022-10-13T13:58:05.275Z,21.22
2022-10-13T13:59:36.941Z,21.14
2022-10-13T14:01:08.518Z,21.09
2022-10-13T14:02:40.203Z,21.03
2022-10-13T14:04:11.746Z,21.05
2022-10-13T14:05:43.348Z,21.00
2022-10-13T14:07:14.986Z,20.94
2022-10-13T14:08:47.152Z,20.83
2022-10-13T14:10:18.869Z,20.82
2022-10-13T14:11:50.429Z,20.82
2022-10-13T14:13:25.013Z,20.82
2022-10-13T14:14:57.132Z,20.84
2022-10-13T14:16:29.021Z,20.80
2022-10-13T14:18:00.612Z,20.68
2022-10-13T14:19:34.760Z,20.61
2022-10-13T14:21:07.398Z,20.53
2022-10-13T14:22:39.072Z,20.44
2022-10-13T14:24:14.252Z,20.35
2022-10-13T14:25:46.027Z,20.18
2022-10-13T14:27:17.689Z,20.17
2022-10-13T14:28:50.054Z,20.20
2022-10-13T14:30:21.952Z,20.10
2022-10-13T14:31:53.563Z,20.08
2022-10-13T14:33:25.519Z,20.08
2022-10-13T14:34:57.157Z,20.09
2022-10-13T14:36:28.775Z,20.09
2022-10-13T14:38:00.566Z,20.11
2022-10-13T14:39:32.190Z,20.11
2022-10-13T14:41:04.809Z,20.08
2022-10-13T14:42:36.380Z,20.01
2022-10-13T14:44:09.576Z,19.98
2022-10-13T14:45:41.451Z,19.96
2022-10-13T14:47:13.493Z,19.97
2022-10-13T14:48:45.602Z,19.94
2022-10-13T14:50:17.265Z,19.86
2022-10-13T14:51:48.926Z,19.81
2022-10-13T14:53:20.531Z,19.72
2022-10-13T14:54:52.160Z,19.69
2022-10-13T14:56:23.764Z,19.65
2022-10-13T14:57:55.420Z,19.60
2022-10-13T14:59:27.085Z,19.56
2022-10-13T15:00:58.788Z,19.52
2022-10-13T15:02:30.398Z,19.47
2022-10-13T15:04:02.089Z,19.41
2022-10-13T15:05:33.695Z,19.38
2022-10-13T15:11:02.823Z,19.23
2022-10-13T15:15:08.444Z,19.09
2022-10-13T15:17:08.473Z,18.97
2022-10-13T15:18:40.047Z,18.91
2022-10-13T15:20:13.872Z,18.85
2022-10-13T15:21:58.686Z,18.81
2022-10-13T15:23:30.864Z,18.80
2022-10-13T15:27:23.566Z,18.78
2022-10-13T15:29:11.699Z,18.75
2022-10-13T15:31:06.693Z,18.71
2022-10-13T15:32:47.978Z,18.67
2022-10-13T15:34:27.534Z,18.65
2022-10-13T15:36:10.245Z,18.65
2022-10-13T15:39:35.922Z,18.64
2022-10-13T15:41:07.672Z,18.62
2022-10-13T15:42:39.305Z,18.59
2022-10-13T15:44:10.953Z,18.55
2022-10-13T15:45:42.630Z,18.52
2022-10-13T15:47:17.195Z,18.50
2022-10-13T15:48:49.558Z,18.49
2022-10-13T15:50:21.246Z,18.47
2022-10-13T15:51:52.845Z,18.43
2022-10-13T15:53:24.571Z,18.38
2022-10-13T15:54:56.960Z,18.35
2022-10-13T15:56:28.613Z,18.29
2022-10-13T15:58:00.303Z,18.27
2022-10-13T15:59:31.984Z,18.22
2022-10-13T16:01:09.981Z,18.14
2022-10-13T16:02:42.147Z,18.08
2022-10-13T16:04:13.756Z,18.02
2022-10-13T16:05:45.858Z,17.96
2022-10-13T16:07:20.724Z,17.95
2022-10-13T16:08:52.378Z,17.94
2022-10-13T16:10:23.910Z,17.91
2022-10-13T16:11:55.428Z,17.92
2022-10-13T16:13:26.944Z,17.91
2022-10-13T16:14:58.472Z,17.87
2022-10-13T16:16:30.352Z,17.86
2022-10-13T16:18:02.288Z,17.85
2022-10-13T16:19:33.804Z,17.84
2022-10-13T16:21:17.301Z,17.78
2022-10-13T16:22:49.822Z,17.73
2022-10-13T16:24:21.823Z,17.70
2022-10-13T16:25:53.796Z,17.69
2022-10-13T16:27:25.417Z,17.66
2022-10-13T16:28:57.239Z,17.64
2022-10-13T16:30:30.521Z,17.65
2022-10-13T16:32:02.263Z,17.64
2022-10-13T16:33:34.583Z,17.65
2022-10-13T16:35:06.665Z,17.63
2022-10-13T16:36:38.313Z,17.62
2022-10-13T16:38:11.203Z,17.60
2022-10-13T16:39:46.512Z,17.58
2022-10-13T16:41:21.154Z,17.58
2022-10-13T16:42:52.851Z,17.56
2022-10-13T16:44:24.808Z,17.53
2022-10-13T16:46:00.014Z,17.51
2022-10-13T16:47:32.122Z,17.49
2022-10-13T16:49:03.708Z,17.42
2022-10-13T16:50:37.618Z,17.35
2022-10-13T16:52:09.280Z,17.33
2022-10-13T16:53:40.989Z,17.33
2022-10-13T16:55:12.784Z,17.33
2022-10-13T16:56:44.415Z,17.30
2022-10-13T16:58:16.045Z,17.31
2022-10-13T16:59:48.002Z,17.35
2022-10-13T17:01:19.670Z,17.32
2022-10-13T17:02:51.765Z,17.33
2022-10-13T17:04:23.476Z,17.32
2022-10-13T17:05:55.260Z,17.30
2022-10-13T17:07:27.024Z,17.28
2022-10-13T17:08:58.973Z,17.27
2022-10-13T17:10:31.402Z,17.20
2022-10-13T17:12:04.025Z,17.17
2022-10-13T17:13:37.353Z,17.13
2022-10-13T17:15:09.434Z,17.07
2022-10-13T17:16:41.209Z,16.99
2022-10-13T17:18:12.910Z,16.88
2022-10-13T17:19:44.662Z,16.81
2022-10-13T17:21:17.070Z,16.72
2022-10-13T17:22:48.771Z,16.65
2022-10-13T17:24:20.516Z,16.56
2022-10-13T17:25:52.418Z,16.50
2022-10-13T17:27:24.367Z,16.47
2022-10-13T17:28:56.215Z,16.48
2022-10-13T17:30:28.634Z,16.46
2022-10-13T17:32:01.516Z,16.44
2022-10-13T17:33:33.803Z,16.41
2022-10-13T17:35:06.212Z,16.41
2022-10-13T17:36:37.911Z,16.44
2022-10-13T17:38:10.095Z,16.47
2022-10-13T17:39:41.833Z,16.51
2022-10-13T17:41:13.532Z,16.48
2022-10-13T17:42:45.315Z,16.50
2022-10-13T17:44:20.953Z,16.55
2022-10-13T17:45:52.489Z,16.58
2022-10-13T17:47:24.172Z,16.56
2022-10-13T17:48:56.460Z,16.54
2022-10-13T17:50:28.374Z,16.52
2022-10-13T17:52:00.347Z,16.48
2022-10-13T17:53:32.211Z,16.47
2022-10-13T17:55:03.990Z,16.46
2022-10-13T17:56:35.733Z,16.47
2022-10-13T17:58:07.292Z,16.43
2022-10-13T17:59:38.775Z,16.43
2022-10-13T18:01:13.752Z,16.43
2022-10-13T18:02:45.497Z,16.43
2022-10-13T18:04:18.625Z,16.42
2022-10-13T18:05:53.456Z,16.41
2022-10-13T18:07:25.366Z,16.36
2022-10-13T18:08:56.988Z,16.27
2022-10-13T18:10:33.915Z,16.25
2022-10-13T18:12:17.781Z,16.25
2022-10-13T18:13:49.606Z,16.20
2022-10-13T18:15:21.265Z,16.18
2022-10-13T18:16:52.945Z,16.19
2022-10-13T18:18:24.539Z,16.13
2022-10-13T18:19:58.013Z,16.06
2022-10-13T18:21:29.834Z,16.01
2022-10-13T18:23:01.506Z,15.96
2022-10-13T18:24:33.106Z,15.95
2022-10-13T18:26:08.685Z,15.91
2022-10-13T18:27:40.635Z,15.89
2022-10-13T18:29:12.521Z,15.90
2022-10-13T18:30:44.073Z,15.93
2022-10-13T18:32:15.779Z,15.94
2022-10-13T18:33:47.461Z,15.97
2022-10-13T18:35:18.961Z,16.01
2022-10-13T18:36:52.233Z,16.02
2022-10-13T18:38:24.385Z,16.08
2022-10-13T18:39:55.966Z,16.13
2022-10-13T18:41:28.087Z,16.15
2022-10-13T18:42:59.722Z,16.21
2022-10-13T18:44:31.388Z,16.23
2022-10-13T18:46:03.178Z,16.26
2022-10-13T18:47:35.254Z,16.25
2022-10-13T18:49:07.192Z,16.21
2022-10-13T18:50:39.102Z,16.21
2022-10-13T18:52:11.028Z,16.22
2022-10-13T18:53:43.006Z,16.25
2022-10-13T18:55:14.713Z,16.26
2022-10-13T18:56:46.289Z,16.29
2022-10-13T18:58:17.921Z,16.27
2022-10-13T18:59:49.491Z,16.24
2022-10-13T19:01:22.070Z,16.26
2022-10-13T19:02:53.897Z,16.29
2022-10-13T19:04:26.341Z,16.29
2022-10-13T19:05:58.159Z,16.26
2022-10-13T19:07:30.293Z,16.27
2022-10-13T19:09:03.977Z,16.28
2022-10-13T19:10:36.073Z,16.29
2022-10-13T19:12:07.767Z,16.31
2022-10-13T19:13:40.011Z,16.31
2022-10-13T19:15:11.638Z,16.30
2022-10-13T19:16:43.982Z,16.25
2022-10-13T19:18:15.734Z,16.21
2022-10-13T19:19:47.564Z,16.17
2022-10-13T19:21:19.545Z,16.11
2022-10-13T19:22:51.161Z,16.07
2022-10-13T19:24:23.161Z,16.07
2022-10-13T19:25:58.107Z,16.03
2022-10-13T19:27:29.903Z,15.98
2022-10-13T19:29:10.800Z,15.95
2022-10-13T19:30:42.380Z,15.83
2022-10-13T19:32:14.055Z,15.77
2022-10-13T19:33:47.420Z,15.76
2022-10-13T19:35:18.974Z,15.77
2022-10-13T19:36:50.748Z,15.75
2022-10-13T19:38:22.375Z,15.73
2022-10-13T19:39:54.060Z,15.74
2022-10-13T19:41:27.115Z,15.75
2022-10-13T19:42:58.660Z,15.76
2022-10-13T19:44:30.268Z,15.78
2022-10-13T19:46:02.412Z,15.77
2022-10-13T19:47:33.981Z,15.77
2022-10-13T19:49:05.778Z,15.79
2022-10-13T19:50:38.161Z,15.83
2022-10-13T19:52:09.842Z,15.86
2022-10-13T19:53:41.552Z,15.90
2022-10-13T19:55:13.436Z,15.91
2022-10-13T19:56:45.505Z,15.87
2022-10-13T19:58:17.113Z,15.80
2022-10-13T19:59:48.847Z,15.79
2022-10-13T20:01:20.970Z,15.75
2022-10-13T20:02:52.801Z,15.71
2022-10-13T20:04:24.396Z,15.73
2022-10-13T20:05:56.041Z,15.79
2022-10-13T20:07:27.674Z,15.78
2022-10-13T20:08:59.722Z,15.80
2022-10-13T20:10:31.285Z,15.85
2022-10-13T20:12:02.914Z,15.89
2022-10-13T20:13:34.964Z,15.87
2022-10-13T20:15:06.879Z,15.84
2022-10-13T20:16:38.629Z,15.78
2022-10-13T20:18:13.029Z,15.76
2022-10-13T20:19:45.004Z,15.71
2022-10-13T20:21:18.047Z,15.64
2022-10-13T20:22:49.650Z,15.60
2022-10-13T20:24:23.372Z,15.60
2022-10-13T20:25:55.046Z,15.62